Cengiz Topel Airport


Codes: LTBQ/KCO
Name: Cengiz Topel Airport
City:
Country: Turkey
Elevation: 182 ft.

Photos at Cengiz Topel Airport


   Photos courtesy of SpottingLog. You can add your own sightings and photos by signing up for a free trial today.



No photos found.

Weather at Cengiz Topel Airport


Time (UTC)DescriptionTempratureWindCloud coverageVisibilityPressureHumidity
18-Apr-2024 00:00Broken Clouds14°C2 mph, SE75%10000m1000hPa82%
18-Apr-2024 03:00Broken Clouds15°C4 mph, S53%10000m1000hPa69%
18-Apr-2024 06:00Scattered Clouds19°C4 mph, SW28%10000m1001hPa52%
18-Apr-2024 09:00Clear Sky24°C11 mph, W3%10000m1002hPa42%
18-Apr-2024 12:00Few Clouds23°C16 mph, W17%10000m1003hPa51%
18-Apr-2024 15:00Light Rain17°C7 mph, N30%10000m1006hPa72%
18-Apr-2024 18:00Broken Clouds14°C4 mph, NE64%8520m1010hPa86%
18-Apr-2024 21:00Overcast Clouds13°C4 mph, NE100%10000m1011hPa87%
19-Apr-2024 00:00Overcast Clouds13°C4 mph, NE100%10000m1012hPa85%
19-Apr-2024 03:00Light Rain11°C4 mph, NE90%8640m1013hPa89%
19-Apr-2024 06:00Light Rain12°C4 mph, NE93%5758m1015hPa86%
19-Apr-2024 09:00Light Rain13°C4 mph, NE99%10000m1015hPa80%
19-Apr-2024 12:00Overcast Clouds17°C9 mph, NE93%10000m1013hPa63%
19-Apr-2024 15:00Overcast Clouds15°C9 mph, NE100%10000m1011hPa70%
19-Apr-2024 18:00Overcast Clouds11°C4 mph, NE100%10000m1012hPa90%
19-Apr-2024 21:00Broken Clouds10°C2 mph, E83%10000m1010hPa92%
20-Apr-2024 00:00Overcast Clouds11°C7 mph, E92%10000m1006hPa90%
20-Apr-2024 03:00Overcast Clouds11°C2 mph, N99%10000m1005hPa92%
20-Apr-2024 06:00Overcast Clouds14°C4 mph, NE99%10000m1003hPa80%
20-Apr-2024 09:00Light Rain15°C4 mph, NW88%10000m1002hPa81%
20-Apr-2024 12:00Moderate Rain16°C4 mph, NW94%10000m1003hPa77%
20-Apr-2024 15:00Light Rain16°C7 mph, W100%10000m1005hPa77%
20-Apr-2024 18:00Light Rain12°C7 mph, SW99%10000m1007hPa90%
20-Apr-2024 21:00Light Rain11°C11 mph, W97%10000m1010hPa95%
21-Apr-2024 00:00Light Rain11°C7 mph, W95%10000m1011hPa95%
21-Apr-2024 03:00Scattered Clouds10°C4 mph, SW28%10000m1013hPa91%
21-Apr-2024 06:00Few Clouds14°C0 mph, S24%10000m1013hPa72%
21-Apr-2024 09:00Few Clouds19°C2 mph, N18%10000m1013hPa51%
21-Apr-2024 12:00Few Clouds21°C4 mph, N18%10000m1012hPa46%
21-Apr-2024 15:00Broken Clouds17°C9 mph, NE54%10000m1012hPa69%
21-Apr-2024 18:00Broken Clouds13°C2 mph, NE51%10000m1013hPa82%
21-Apr-2024 21:00Scattered Clouds13°C4 mph, E37%10000m1012hPa78%
22-Apr-2024 00:00Broken Clouds13°C2 mph, SW68%10000m1013hPa74%
22-Apr-2024 03:00Broken Clouds13°C2 mph, SE70%10000m1013hPa76%
22-Apr-2024 06:00Scattered Clouds19°C2 mph, W42%10000m1014hPa56%
22-Apr-2024 09:00Few Clouds23°C4 mph, NW11%10000m1014hPa37%
22-Apr-2024 12:00Few Clouds23°C13 mph, W14%10000m1014hPa41%
22-Apr-2024 15:00Overcast Clouds20°C7 mph, W100%10000m1016hPa58%
22-Apr-2024 18:00Overcast Clouds16°C4 mph, SW100%10000m1018hPa66%
22-Apr-2024 21:00Overcast Clouds15°C2 mph, SW89%10000m1019hPa66%